sensor_id;sensor_type;location;lat;lon;timestamp;P1;durP1;ratioP1;P2;durP2;ratioP2
68653;SDS011;55636;51.108;13.622;2023-05-01T00:00:59;29.40;;;23.10;;
68653;SDS011;55636;51.108;13.622;2023-05-01T00:02:01;31.90;;;23.47;;
68653;SDS011;55636;51.108;13.622;2023-05-01T00:03:04;27.83;;;21.83;;
68653;SDS011;55636;51.108;13.622;2023-05-01T00:04:06;27.37;;;22.77;;
68653;SDS011;55636;51.108;13.622;2023-05-01T00:05:09;28.37;;;22.40;;
68653;SDS011;55636;51.108;13.622;2023-05-01T00:06:12;29.10;;;23.67;;
68653;SDS011;55636;51.108;13.622;2023-05-01T00:07:14;26.50;;;21.97;;
68653;SDS011;55636;51.108;13.622;2023-05-01T00:08:17;31.10;;;23.07;;
68653;SDS011;55636;51.108;13.622;2023-05-01T00:09:20;27.87;;;22.47;;
68653;SDS011;55636;51.108;13.622;2023-05-01T00:10:22;26.97;;;22.57;;
68653;SDS011;55636;51.108;13.622;2023-05-01T00:11:24;27.60;;;21.03;;
68653;SDS011;55636;51.108;13.622;2023-05-01T00:12:27;29.17;;;21.80;;
68653;SDS011;55636;51.108;13.622;2023-05-01T00:13:30;27.27;;;22.37;;
68653;SDS011;55636;51.108;13.622;2023-05-01T00:14:33;26.57;;;21.57;;
68653;SDS011;55636;51.108;13.622;2023-05-01T00:15:35;26.40;;;21.47;;
68653;SDS011;55636;51.108;13.622;2023-05-01T00:16:37;27.07;;;21.60;;
68653;SDS011;55636;51.108;13.622;2023-05-01T00:17:40;26.77;;;21.17;;
68653;SDS011;55636;51.108;13.622;2023-05-01T00:18:42;28.10;;;21.67;;
68653;SDS011;55636;51.108;13.622;2023-05-01T00:19:45;28.07;;;22.87;;
68653;SDS011;55636;51.108;13.622;2023-05-01T00:20:47;27.33;;;22.17;;
68653;SDS011;55636;51.108;13.622;2023-05-01T00:21:49;26.70;;;21.63;;
68653;SDS011;55636;51.108;13.622;2023-05-01T00:22:53;28.27;;;22.73;;
68653;SDS011;55636;51.108;13.622;2023-05-01T00:23:56;27.47;;;22.17;;
68653;SDS011;55636;51.108;13.622;2023-05-01T00:24:58;29.07;;;22.73;;
68653;SDS011;55636;51.108;13.622;2023-05-01T00:26:01;28.37;;;22.37;;
68653;SDS011;55636;51.108;13.622;2023-05-01T00:27:03;26.83;;;21.57;;
68653;SDS011;55636;51.108;13.622;2023-05-01T00:28:05;28.90;;;21.83;;
68653;SDS011;55636;51.108;13.622;2023-05-01T00:29:08;26.77;;;21.57;;
68653;SDS011;55636;51.108;13.622;2023-05-01T00:30:10;29.27;;;23.10;;
68653;SDS011;55636;51.108;13.622;2023-05-01T00:31:13;29.43;;;23.10;;
68653;SDS011;55636;51.108;13.622;2023-05-01T00:32:15;27.33;;;21.67;;
68653;SDS011;55636;51.108;13.622;2023-05-01T00:33:18;27.47;;;22.60;;
68653;SDS011;55636;51.108;13.622;2023-05-01T00:34:20;26.70;;;22.37;;
68653;SDS011;55636;51.108;13.622;2023-05-01T00:35:23;28.50;;;21.97;;
68653;SDS011;55636;51.108;13.622;2023-05-01T00:36:25;30.80;;;22.97;;
68653;SDS011;55636;51.108;13.622;2023-05-01T00:37:27;26.10;;;20.77;;
68653;SDS011;55636;51.108;13.622;2023-05-01T00:38:30;29.13;;;22.17;;
68653;SDS011;55636;51.108;13.622;2023-05-01T00:39:32;26.57;;;20.90;;
68653;SDS011;55636;51.108;13.622;2023-05-01T00:40:43;27.90;;;21.37;;
68653;SDS011;55636;51.108;13.622;2023-05-01T00:41:46;27.53;;;20.60;;
68653;SDS011;55636;51.108;13.622;2023-05-01T00:42:48;26.10;;;20.07;;
68653;SDS011;55636;51.108;13.622;2023-05-01T00:43:51;25.03;;;19.73;;
68653;SDS011;55636;51.108;13.622;2023-05-01T00:44:53;25.70;;;20.70;;
68653;SDS011;55636;51.108;13.622;2023-05-01T00:45:55;26.93;;;20.33;;
68653;SDS011;55636;51.108;13.622;2023-05-01T00:46:58;27.33;;;21.57;;
68653;SDS011;55636;51.108;13.622;2023-05-01T00:48:03;27.87;;;20.60;;
68653;SDS011;55636;51.108;13.622;2023-05-01T00:49:06;27.73;;;21.37;;
68653;SDS011;55636;51.108;13.622;2023-05-01T00:50:09;25.70;;;20.83;;
68653;SDS011;55636;51.108;13.622;2023-05-01T00:51:12;26.53;;;21.80;;
68653;SDS011;55636;51.108;13.622;2023-05-01T00:52:14;26.00;;;20.57;;
68653;SDS011;55636;51.108;13.622;2023-05-01T00:53:17;26.13;;;21.67;;
68653;SDS011;55636;51.108;13.622;2023-05-01T00:54:20;25.70;;;20.43;;
68653;SDS011;55636;51.108;13.622;2023-05-01T00:55:24;28.37;;;20.27;;
68653;SDS011;55636;51.108;13.622;2023-05-01T00:56:30;25.33;;;21.30;;
68653;SDS011;55636;51.108;13.622;2023-05-01T00:57:33;28.10;;;21.57;;
68653;SDS011;55636;51.108;13.622;2023-05-01T00:58:35;28.40;;;21.37;;
68653;SDS011;55636;51.108;13.622;2023-05-01T00:59:39;24.47;;;20.27;;
68653;SDS011;55636;51.108;13.622;2023-05-01T01:00:42;27.30;;;20.73;;
68653;SDS011;55636;51.108;13.622;2023-05-01T01:01:45;27.07;;;21.20;;
68653;SDS011;55636;51.108;13.622;2023-05-01T01:02:48;27.77;;;21.47;;
68653;SDS011;55636;51.108;13.622;2023-05-01T01:03:51;28.13;;;21.07;;
68653;SDS011;55636;51.108;13.622;2023-05-01T01:04:53;28.00;;;21.33;;
68653;SDS011;55636;51.108;13.622;2023-05-01T01:05:58;28.70;;;21.50;;
68653;SDS011;55636;51.108;13.622;2023-05-01T01:08:32;26.93;;;20.93;;
68653;SDS011;55636;51.108;13.622;2023-05-01T01:09:48;24.27;;;20.27;;
68653;SDS011;55636;51.108;13.622;2023-05-01T01:10:54;26.63;;;20.53;;
68653;SDS011;55636;51.108;13.622;2023-05-01T01:13:18;25.80;;;20.07;;
68653;SDS011;55636;51.108;13.622;2023-05-01T01:14:38;26.87;;;20.73;;
68653;SDS011;55636;51.108;13.622;2023-05-01T01:15:49;26.33;;;20.33;;
68653;SDS011;55636;51.108;13.622;2023-05-01T01:16:58;25.20;;;20.50;;
68653;SDS011;55636;51.108;13.622;2023-05-01T01:18:35;23.73;;;19.83;;
68653;SDS011;55636;51.108;13.622;2023-05-01T01:20:55;25.50;;;20.17;;
68653;SDS011;55636;51.108;13.622;2023-05-01T01:22:14;26.93;;;20.73;;
68653;SDS011;55636;51.108;13.622;2023-05-01T01:25:14;25.33;;;20.10;;
68653;SDS011;55636;51.108;13.622;2023-05-01T01:31:08;27.67;;;20.73;;
68653;SDS011;55636;51.108;13.622;2023-05-01T01:34:25;26.33;;;20.83;;
68653;SDS011;55636;51.108;13.622;2023-05-01T01:35:34;24.73;;;20.33;;
68653;SDS011;55636;51.108;13.622;2023-05-01T01:36:39;25.20;;;20.13;;
68653;SDS011;55636;51.108;13.622;2023-05-01T01:37:54;25.40;;;20.47;;
68653;SDS011;55636;51.108;13.622;2023-05-01T01:39:22;26.43;;;20.93;;
68653;SDS011;55636;51.108;13.622;2023-05-01T01:40:37;23.53;;;20.13;;
68653;SDS011;55636;51.108;13.622;2023-05-01T01:41:46;25.97;;;20.57;;
68653;SDS011;55636;51.108;13.622;2023-05-01T01:42:55;23.47;;;20.10;;
68653;SDS011;55636;51.108;13.622;2023-05-01T01:44:06;24.33;;;19.93;;
68653;SDS011;55636;51.108;13.622;2023-05-01T01:45:14;27.57;;;20.57;;
68653;SDS011;55636;51.108;13.622;2023-05-01T01:46:22;25.73;;;20.33;;
68653;SDS011;55636;51.108;13.622;2023-05-01T01:47:28;25.07;;;20.17;;
68653;SDS011;55636;51.108;13.622;2023-05-01T01:48:35;28.30;;;20.67;;
68653;SDS011;55636;51.108;13.622;2023-05-01T01:49:43;25.57;;;20.63;;
68653;SDS011;55636;51.108;13.622;2023-05-01T01:50:49;24.67;;;20.63;;
68653;SDS011;55636;51.108;13.622;2023-05-01T01:51:54;24.20;;;19.13;;
68653;SDS011;55636;51.108;13.622;2023-05-01T01:52:59;26.10;;;20.07;;
68653;SDS011;55636;51.108;13.622;2023-05-01T01:54:03;24.63;;;19.93;;
68653;SDS011;55636;51.108;13.622;2023-05-01T01:55:08;27.13;;;21.07;;
68653;SDS011;55636;51.108;13.622;2023-05-01T01:56:13;24.90;;;19.63;;
68653;SDS011;55636;51.108;13.622;2023-05-01T01:57:17;26.13;;;19.80;;
68653;SDS011;55636;51.108;13.622;2023-05-01T01:58:21;25.97;;;20.07;;
68653;SDS011;55636;51.108;13.622;2023-05-01T01:59:28;25.03;;;20.07;;
68653;SDS011;55636;51.108;13.622;2023-05-01T02:00:36;24.43;;;19.83;;
68653;SDS011;55636;51.108;13.622;2023-05-01T02:01:40;24.93;;;20.10;;
68653;SDS011;55636;51.108;13.622;2023-05-01T02:02:44;24.93;;;20.47;;
68653;SDS011;55636;51.108;13.622;2023-05-01T02:03:48;27.10;;;20.17;;
68653;SDS011;55636;51.108;13.622;2023-05-01T02:04:54;27.80;;;20.50;;
68653;SDS011;55636;51.108;13.622;2023-05-01T02:05:58;23.57;;;19.43;;
68653;SDS011;55636;51.108;13.622;2023-05-01T02:07:01;26.13;;;19.93;;
68653;SDS011;55636;51.108;13.622;2023-05-01T02:08:05;25.87;;;20.77;;
68653;SDS011;55636;51.108;13.622;2023-05-01T02:09:09;24.43;;;19.37;;
68653;SDS011;55636;51.108;13.622;2023-05-01T02:10:13;26.40;;;20.87;;
68653;SDS011;55636;51.108;13.622;2023-05-01T02:11:17;24.93;;;20.07;;
68653;SDS011;55636;51.108;13.622;2023-05-01T02:12:22;27.57;;;20.43;;
68653;SDS011;55636;51.108;13.622;2023-05-01T02:13:28;30.50;;;20.97;;
68653;SDS011;55636;51.108;13.622;2023-05-01T02:14:32;23.23;;;20.10;;
68653;SDS011;55636;51.108;13.622;2023-05-01T02:15:37;26.10;;;20.17;;
68653;SDS011;55636;51.108;13.622;2023-05-01T02:16:41;27.30;;;20.17;;
68653;SDS011;55636;51.108;13.622;2023-05-01T02:17:44;26.07;;;19.50;;
68653;SDS011;55636;51.108;13.622;2023-05-01T02:18:48;24.27;;;19.77;;
68653;SDS011;55636;51.108;13.622;2023-05-01T02:19:51;23.40;;;19.87;;
68653;SDS011;55636;51.108;13.622;2023-05-01T02:20:56;23.97;;;19.83;;
68653;SDS011;55636;51.108;13.622;2023-05-01T02:21:59;27.20;;;20.27;;
68653;SDS011;55636;51.108;13.622;2023-05-01T02:23:03;24.50;;;19.90;;
68653;SDS011;55636;51.108;13.622;2023-05-01T02:24:08;24.03;;;19.70;;
68653;SDS011;55636;51.108;13.622;2023-05-01T02:25:12;24.53;;;19.90;;
68653;SDS011;55636;51.108;13.622;2023-05-01T02:26:15;24.30;;;19.53;;
68653;SDS011;55636;51.108;13.622;2023-05-01T02:27:20;23.10;;;19.63;;
68653;SDS011;55636;51.108;13.622;2023-05-01T02:28:25;23.43;;;19.27;;
68653;SDS011;55636;51.108;13.622;2023-05-01T02:29:30;25.70;;;18.87;;
68653;SDS011;55636;51.108;13.622;2023-05-01T02:30:34;22.93;;;18.90;;
68653;SDS011;55636;51.108;13.622;2023-05-01T02:31:37;23.27;;;18.80;;
68653;SDS011;55636;51.108;13.622;2023-05-01T02:32:39;22.47;;;18.77;;
68653;SDS011;55636;51.108;13.622;2023-05-01T02:33:42;24.40;;;19.30;;
68653;SDS011;55636;51.108;13.622;2023-05-01T02:34:44;25.67;;;19.97;;
68653;SDS011;55636;51.108;13.622;2023-05-01T02:35:47;24.03;;;18.80;;
68653;SDS011;55636;51.108;13.622;2023-05-01T02:36:52;23.20;;;19.00;;
68653;SDS011;55636;51.108;13.622;2023-05-01T02:37:55;23.70;;;19.07;;
68653;SDS011;55636;51.108;13.622;2023-05-01T02:38:58;25.00;;;19.07;;
68653;SDS011;55636;51.108;13.622;2023-05-01T02:40:01;22.47;;;18.53;;
68653;SDS011;55636;51.108;13.622;2023-05-01T02:41:04;23.47;;;18.97;;
68653;SDS011;55636;51.108;13.622;2023-05-01T02:42:09;23.77;;;19.23;;
68653;SDS011;55636;51.108;13.622;2023-05-01T02:43:14;24.30;;;19.00;;
68653;SDS011;55636;51.108;13.622;2023-05-01T02:44:19;21.47;;;18.17;;
68653;SDS011;55636;51.108;13.622;2023-05-01T02:45:23;21.57;;;18.40;;
68653;SDS011;55636;51.108;13.622;2023-05-01T02:46:26;23.87;;;18.47;;
68653;SDS011;55636;51.108;13.622;2023-05-01T02:47:31;22.77;;;18.07;;
68653;SDS011;55636;51.108;13.622;2023-05-01T02:48:38;23.17;;;18.10;;
68653;SDS011;55636;51.108;13.622;2023-05-01T02:49:42;21.33;;;17.53;;
68653;SDS011;55636;51.108;13.622;2023-05-01T02:50:45;21.70;;;17.83;;
68653;SDS011;55636;51.108;13.622;2023-05-01T02:51:50;21.77;;;17.67;;
68653;SDS011;55636;51.108;13.622;2023-05-01T02:52:53;22.70;;;17.87;;
68653;SDS011;55636;51.108;13.622;2023-05-01T02:54:11;24.27;;;18.30;;
68653;SDS011;55636;51.108;13.622;2023-05-01T02:55:15;20.97;;;17.67;;
68653;SDS011;55636;51.108;13.622;2023-05-01T02:56:18;21.73;;;17.37;;
68653;SDS011;55636;51.108;13.622;2023-05-01T02:57:21;23.83;;;17.70;;
68653;SDS011;55636;51.108;13.622;2023-05-01T02:58:24;22.03;;;17.57;;
68653;SDS011;55636;51.108;13.622;2023-05-01T02:59:27;22.70;;;17.90;;
68653;SDS011;55636;51.108;13.622;2023-05-01T03:00:29;22.90;;;17.87;;
68653;SDS011;55636;51.108;13.622;2023-05-01T03:01:31;25.73;;;17.87;;
68653;SDS011;55636;51.108;13.622;2023-05-01T03:02:34;26.83;;;17.83;;
68653;SDS011;55636;51.108;13.622;2023-05-01T03:03:37;22.27;;;16.90;;
68653;SDS011;55636;51.108;13.622;2023-05-01T03:04:39;23.17;;;17.37;;
68653;SDS011;55636;51.108;13.622;2023-05-01T03:05:42;22.83;;;17.90;;
68653;SDS011;55636;51.108;13.622;2023-05-01T03:06:44;21.97;;;17.63;;
68653;SDS011;55636;51.108;13.622;2023-05-01T03:07:46;22.87;;;17.10;;
68653;SDS011;55636;51.108;13.622;2023-05-01T03:08:49;23.30;;;17.23;;
68653;SDS011;55636;51.108;13.622;2023-05-01T03:09:51;20.10;;;16.47;;
68653;SDS011;55636;51.108;13.622;2023-05-01T03:10:54;20.00;;;16.30;;
68653;SDS011;55636;51.108;13.622;2023-05-01T03:11:56;21.40;;;16.17;;
68653;SDS011;55636;51.108;13.622;2023-05-01T03:12:58;19.30;;;16.40;;
68653;SDS011;55636;51.108;13.622;2023-05-01T03:14:01;20.87;;;15.40;;
68653;SDS011;55636;51.108;13.622;2023-05-01T03:15:04;20.93;;;15.47;;
68653;SDS011;55636;51.108;13.622;2023-05-01T03:16:07;22.93;;;16.37;;
68653;SDS011;55636;51.108;13.622;2023-05-01T03:17:09;18.23;;;15.10;;
68653;SDS011;55636;51.108;13.622;2023-05-01T03:18:11;18.67;;;15.47;;
68653;SDS011;55636;51.108;13.622;2023-05-01T03:19:14;19.07;;;15.03;;
68653;SDS011;55636;51.108;13.622;2023-05-01T03:20:16;18.47;;;14.43;;
68653;SDS011;55636;51.108;13.622;2023-05-01T03:21:18;18.10;;;14.40;;
68653;SDS011;55636;51.108;13.622;2023-05-01T03:22:21;17.60;;;14.17;;
68653;SDS011;55636;51.108;13.622;2023-05-01T03:23:24;19.53;;;15.70;;
68653;SDS011;55636;51.108;13.622;2023-05-01T03:24:26;20.37;;;15.20;;
68653;SDS011;55636;51.108;13.622;2023-05-01T03:25:29;18.43;;;14.77;;
68653;SDS011;55636;51.108;13.622;2023-05-01T03:26:31;17.50;;;14.47;;
68653;SDS011;55636;51.108;13.622;2023-05-01T03:27:34;18.43;;;14.63;;
68653;SDS011;55636;51.108;13.622;2023-05-01T03:28:36;18.20;;;14.00;;
68653;SDS011;55636;51.108;13.622;2023-05-01T03:29:38;19.97;;;14.40;;
68653;SDS011;55636;51.108;13.622;2023-05-01T03:30:41;16.53;;;13.70;;
68653;SDS011;55636;51.108;13.622;2023-05-01T03:31:43;18.07;;;14.17;;
68653;SDS011;55636;51.108;13.622;2023-05-01T03:32:46;18.57;;;12.90;;
68653;SDS011;55636;51.108;13.622;2023-05-01T03:33:55;16.90;;;13.83;;
68653;SDS011;55636;51.108;13.622;2023-05-01T03:34:57;16.17;;;13.10;;
68653;SDS011;55636;51.108;13.622;2023-05-01T03:36:03;19.60;;;13.93;;
68653;SDS011;55636;51.108;13.622;2023-05-01T03:37:08;17.33;;;13.10;;
68653;SDS011;55636;51.108;13.622;2023-05-01T03:38:11;19.07;;;13.13;;
68653;SDS011;55636;51.108;13.622;2023-05-01T03:39:32;16.73;;;13.47;;
68653;SDS011;55636;51.108;13.622;2023-05-01T03:40:58;18.07;;;13.73;;
68653;SDS011;55636;51.108;13.622;2023-05-01T03:42:05;18.23;;;13.10;;
68653;SDS011;55636;51.108;13.622;2023-05-01T03:43:13;17.80;;;13.13;;
68653;SDS011;55636;51.108;13.622;2023-05-01T03:44:16;18.60;;;13.50;;
68653;SDS011;55636;51.108;13.622;2023-05-01T03:45:19;17.37;;;12.83;;
68653;SDS011;55636;51.108;13.622;2023-05-01T03:46:21;18.67;;;12.63;;
68653;SDS011;55636;51.108;13.622;2023-05-01T03:47:24;17.20;;;12.83;;
68653;SDS011;55636;51.108;13.622;2023-05-01T03:48:27;18.07;;;14.03;;
68653;SDS011;55636;51.108;13.622;2023-05-01T03:49:30;18.90;;;13.83;;
68653;SDS011;55636;51.108;13.622;2023-05-01T03:50:32;16.30;;;13.43;;
68653;SDS011;55636;51.108;13.622;2023-05-01T03:51:35;18.47;;;13.40;;
68653;SDS011;55636;51.108;13.622;2023-05-01T03:52:37;15.93;;;12.90;;
68653;SDS011;55636;51.108;13.622;2023-05-01T03:53:40;15.90;;;13.37;;
68653;SDS011;55636;51.108;13.622;2023-05-01T03:54:43;17.87;;;14.03;;
68653;SDS011;55636;51.108;13.622;2023-05-01T03:56:06;17.73;;;13.87;;
68653;SDS011;55636;51.108;13.622;2023-05-01T03:57:09;19.30;;;14.03;;
68653;SDS011;55636;51.108;13.622;2023-05-01T03:58:11;19.33;;;14.07;;
68653;SDS011;55636;51.108;13.622;2023-05-01T03:59:14;19.77;;;14.77;;
68653;SDS011;55636;51.108;13.622;2023-05-01T04:00:16;18.17;;;13.80;;
68653;SDS011;55636;51.108;13.622;2023-05-01T04:01:21;16.73;;;13.73;;
68653;SDS011;55636;51.108;13.622;2023-05-01T04:02:23;18.20;;;14.43;;
68653;SDS011;55636;51.108;13.622;2023-05-01T04:03:26;21.90;;;15.43;;
68653;SDS011;55636;51.108;13.622;2023-05-01T04:04:28;17.60;;;14.70;;
68653;SDS011;55636;51.108;13.622;2023-05-01T04:05:32;19.43;;;14.43;;
68653;SDS011;55636;51.108;13.622;2023-05-01T04:06:36;19.17;;;15.07;;
68653;SDS011;55636;51.108;13.622;2023-05-01T04:07:40;17.90;;;14.53;;
68653;SDS011;55636;51.108;13.622;2023-05-01T04:08:43;19.13;;;15.17;;
68653;SDS011;55636;51.108;13.622;2023-05-01T04:09:45;20.40;;;15.23;;
68653;SDS011;55636;51.108;13.622;2023-05-01T04:10:49;18.10;;;14.13;;
68653;SDS011;55636;51.108;13.622;2023-05-01T04:11:51;19.23;;;14.33;;
68653;SDS011;55636;51.108;13.622;2023-05-01T04:12:54;20.57;;;15.13;;
68653;SDS011;55636;51.108;13.622;2023-05-01T04:13:56;19.13;;;15.33;;
68653;SDS011;55636;51.108;13.622;2023-05-01T04:14:58;19.67;;;14.37;;
68653;SDS011;55636;51.108;13.622;2023-05-01T04:16:01;18.90;;;15.10;;
68653;SDS011;55636;51.108;13.622;2023-05-01T04:17:04;18.53;;;14.93;;
68653;SDS011;55636;51.108;13.622;2023-05-01T04:18:10;22.13;;;15.87;;
68653;SDS011;55636;51.108;13.622;2023-05-01T04:19:12;18.57;;;14.97;;
68653;SDS011;55636;51.108;13.622;2023-05-01T04:20:19;19.77;;;14.93;;
68653;SDS011;55636;51.108;13.622;2023-05-01T04:21:21;19.30;;;15.57;;
68653;SDS011;55636;51.108;13.622;2023-05-01T04:22:26;18.27;;;14.30;;
68653;SDS011;55636;51.108;13.622;2023-05-01T04:23:28;17.57;;;14.73;;
68653;SDS011;55636;51.108;13.622;2023-05-01T04:24:33;18.70;;;14.60;;
68653;SDS011;55636;51.108;13.622;2023-05-01T04:25:35;21.57;;;15.07;;
68653;SDS011;55636;51.108;13.622;2023-05-01T04:26:44;17.87;;;14.73;;
68653;SDS011;55636;51.108;13.622;2023-05-01T04:27:46;17.63;;;14.40;;
68653;SDS011;55636;51.108;13.622;2023-05-01T04:28:49;19.67;;;14.37;;
68653;SDS011;55636;51.108;13.622;2023-05-01T04:29:56;18.63;;;14.57;;
68653;SDS011;55636;51.108;13.622;2023-05-01T04:30:59;18.93;;;14.20;;
68653;SDS011;55636;51.108;13.622;2023-05-01T04:32:01;17.43;;;14.43;;
68653;SDS011;55636;51.108;13.622;2023-05-01T04:33:04;18.23;;;14.33;;
68653;SDS011;55636;51.108;13.622;2023-05-01T04:34:13;18.37;;;14.40;;
68653;SDS011;55636;51.108;13.622;2023-05-01T04:35:16;17.13;;;14.07;;
68653;SDS011;55636;51.108;13.622;2023-05-01T04:36:18;18.43;;;14.17;;
68653;SDS011;55636;51.108;13.622;2023-05-01T04:37:21;19.60;;;14.23;;
68653;SDS011;55636;51.108;13.622;2023-05-01T04:38:23;17.07;;;13.73;;
68653;SDS011;55636;51.108;13.622;2023-05-01T04:39:29;16.77;;;13.70;;
68653;SDS011;55636;51.108;13.622;2023-05-01T04:40:34;17.73;;;13.50;;
68653;SDS011;55636;51.108;13.622;2023-05-01T04:41:36;21.90;;;14.10;;
68653;SDS011;55636;51.108;13.622;2023-05-01T04:42:39;16.83;;;13.30;;
68653;SDS011;55636;51.108;13.622;2023-05-01T04:43:45;21.30;;;14.03;;
68653;SDS011;55636;51.108;13.622;2023-05-01T04:44:51;17.07;;;13.57;;
68653;SDS011;55636;51.108;13.622;2023-05-01T04:45:55;16.70;;;13.97;;
68653;SDS011;55636;51.108;13.622;2023-05-01T04:46:57;17.03;;;13.73;;
68653;SDS011;55636;51.108;13.622;2023-05-01T04:48:00;17.67;;;14.20;;
68653;SDS011;55636;51.108;13.622;2023-05-01T04:49:02;17.03;;;13.80;;
68653;SDS011;55636;51.108;13.622;2023-05-01T04:50:05;17.93;;;13.93;;
68653;SDS011;55636;51.108;13.622;2023-05-01T04:51:08;16.90;;;13.53;;
68653;SDS011;55636;51.108;13.622;2023-05-01T04:52:10;17.40;;;14.33;;
68653;SDS011;55636;51.108;13.622;2023-05-01T04:53:33;17.80;;;13.23;;
68653;SDS011;55636;51.108;13.622;2023-05-01T04:54:36;18.37;;;14.00;;
68653;SDS011;55636;51.108;13.622;2023-05-01T04:55:39;18.20;;;13.37;;
68653;SDS011;55636;51.108;13.622;2023-05-01T04:56:49;18.37;;;14.07;;
68653;SDS011;55636;51.108;13.622;2023-05-01T04:57:52;18.23;;;13.83;;
68653;SDS011;55636;51.108;13.622;2023-05-01T04:58:54;20.10;;;14.37;;
68653;SDS011;55636;51.108;13.622;2023-05-01T04:59:59;18.50;;;14.77;;
68653;SDS011;55636;51.108;13.622;2023-05-01T05:01:03;18.53;;;14.87;;
68653;SDS011;55636;51.108;13.622;2023-05-01T05:02:06;17.03;;;14.17;;
68653;SDS011;55636;51.108;13.622;2023-05-01T05:03:09;16.73;;;14.27;;
68653;SDS011;55636;51.108;13.622;2023-05-01T05:04:12;20.63;;;14.97;;
68653;SDS011;55636;51.108;13.622;2023-05-01T05:05:14;17.63;;;14.50;;
68653;SDS011;55636;51.108;13.622;2023-05-01T05:06:17;19.67;;;15.23;;
68653;SDS011;55636;51.108;13.622;2023-05-01T05:07:19;17.10;;;14.53;;
68653;SDS011;55636;51.108;13.622;2023-05-01T05:08:40;18.33;;;14.43;;
68653;SDS011;55636;51.108;13.622;2023-05-01T05:09:44;19.00;;;14.73;;
68653;SDS011;55636;51.108;13.622;2023-05-01T05:10:46;18.70;;;15.33;;
68653;SDS011;55636;51.108;13.622;2023-05-01T05:12:09;19.97;;;15.30;;
68653;SDS011;55636;51.108;13.622;2023-05-01T05:13:12;20.83;;;16.10;;
68653;SDS011;55636;51.108;13.622;2023-05-01T05:14:14;18.63;;;15.40;;
68653;SDS011;55636;51.108;13.622;2023-05-01T05:15:17;20.10;;;15.30;;
68653;SDS011;55636;51.108;13.622;2023-05-01T05:16:19;19.73;;;15.40;;
68653;SDS011;55636;51.108;13.622;2023-05-01T05:17:21;20.10;;;16.03;;
68653;SDS011;55636;51.108;13.622;2023-05-01T05:18:24;20.07;;;15.27;;
68653;SDS011;55636;51.108;13.622;2023-05-01T05:19:26;20.13;;;15.07;;
68653;SDS011;55636;51.108;13.622;2023-05-01T05:20:29;19.97;;;15.70;;
68653;SDS011;55636;51.108;13.622;2023-05-01T05:21:31;20.33;;;15.80;;
68653;SDS011;55636;51.108;13.622;2023-05-01T05:22:37;20.97;;;16.03;;
68653;SDS011;55636;51.108;13.622;2023-05-01T05:23:54;20.77;;;15.47;;
68653;SDS011;55636;51.108;13.622;2023-05-01T05:24:57;21.90;;;15.90;;
68653;SDS011;55636;51.108;13.622;2023-05-01T05:26:05;20.27;;;15.93;;
68653;SDS011;55636;51.108;13.622;2023-05-01T05:27:07;19.40;;;15.97;;
68653;SDS011;55636;51.108;13.622;2023-05-01T05:28:10;20.40;;;15.97;;
68653;SDS011;55636;51.108;13.622;2023-05-01T05:29:12;19.30;;;15.47;;
68653;SDS011;55636;51.108;13.622;2023-05-01T05:30:15;20.87;;;16.40;;
68653;SDS011;55636;51.108;13.622;2023-05-01T05:31:19;19.97;;;16.00;;
68653;SDS011;55636;51.108;13.622;2023-05-01T05:32:21;18.90;;;15.50;;
68653;SDS011;55636;51.108;13.622;2023-05-01T05:33:24;22.17;;;16.27;;
68653;SDS011;55636;51.108;13.622;2023-05-01T05:34:27;18.20;;;15.47;;
68653;SDS011;55636;51.108;13.622;2023-05-01T05:35:29;20.57;;;15.70;;
68653;SDS011;55636;51.108;13.622;2023-05-01T05:36:32;20.73;;;15.87;;
68653;SDS011;55636;51.108;13.622;2023-05-01T05:37:34;19.73;;;15.00;;
68653;SDS011;55636;51.108;13.622;2023-05-01T05:38:36;20.23;;;15.30;;
68653;SDS011;55636;51.108;13.622;2023-05-01T05:39:41;21.27;;;15.80;;
68653;SDS011;55636;51.108;13.622;2023-05-01T05:40:43;18.50;;;15.00;;
68653;SDS011;55636;51.108;13.622;2023-05-01T05:41:46;19.43;;;14.87;;
68653;SDS011;55636;51.108;13.622;2023-05-01T05:42:50;21.10;;;15.80;;
68653;SDS011;55636;51.108;13.622;2023-05-01T05:43:52;19.60;;;15.77;;
68653;SDS011;55636;51.108;13.622;2023-05-01T05:44:56;18.67;;;14.70;;
68653;SDS011;55636;51.108;13.622;2023-05-01T05:45:59;18.43;;;15.47;;
68653;SDS011;55636;51.108;13.622;2023-05-01T05:47:03;19.17;;;15.30;;
68653;SDS011;55636;51.108;13.622;2023-05-01T05:48:07;19.60;;;15.40;;
68653;SDS011;55636;51.108;13.622;2023-05-01T05:49:12;18.63;;;14.97;;
68653;SDS011;55636;51.108;13.622;2023-05-01T05:50:16;20.00;;;16.00;;
68653;SDS011;55636;51.108;13.622;2023-05-01T05:51:20;20.80;;;15.83;;
68653;SDS011;55636;51.108;13.622;2023-05-01T05:52:22;17.83;;;14.97;;
68653;SDS011;55636;51.108;13.622;2023-05-01T05:53:25;23.30;;;15.90;;
68653;SDS011;55636;51.108;13.622;2023-05-01T05:54:28;20.57;;;15.77;;
68653;SDS011;55636;51.108;13.622;2023-05-01T05:55:32;20.07;;;15.07;;
68653;SDS011;55636;51.108;13.622;2023-05-01T05:56:38;22.77;;;16.17;;
68653;SDS011;55636;51.108;13.622;2023-05-01T05:57:41;19.13;;;15.90;;
68653;SDS011;55636;51.108;13.622;2023-05-01T05:58:43;18.97;;;15.20;;
68653;SDS011;55636;51.108;13.622;2023-05-01T05:59:49;21.10;;;15.47;;
68653;SDS011;55636;51.108;13.622;2023-05-01T06:00:56;18.93;;;15.00;;
68653;SDS011;55636;51.108;13.622;2023-05-01T06:01:58;21.40;;;15.37;;
68653;SDS011;55636;51.108;13.622;2023-05-01T06:03:05;20.43;;;15.33;;
68653;SDS011;55636;51.108;13.622;2023-05-01T06:04:09;18.60;;;14.90;;
68653;SDS011;55636;51.108;13.622;2023-05-01T06:05:14;18.13;;;15.13;;
68653;SDS011;55636;51.108;13.622;2023-05-01T06:06:17;18.83;;;15.20;;
68653;SDS011;55636;51.108;13.622;2023-05-01T06:07:20;18.83;;;15.60;;
68653;SDS011;55636;51.108;13.622;2023-05-01T06:08:24;18.70;;;15.17;;
68653;SDS011;55636;51.108;13.622;2023-05-01T06:09:26;18.87;;;15.03;;
68653;SDS011;55636;51.108;13.622;2023-05-01T06:10:29;19.90;;;15.00;;
68653;SDS011;55636;51.108;13.622;2023-05-01T06:11:32;18.27;;;14.37;;
68653;SDS011;55636;51.108;13.622;2023-05-01T06:12:34;19.10;;;15.03;;
68653;SDS011;55636;51.108;13.622;2023-05-01T06:13:42;18.73;;;14.60;;
68653;SDS011;55636;51.108;13.622;2023-05-01T06:14:44;20.33;;;15.13;;
68653;SDS011;55636;51.108;13.622;2023-05-01T06:15:47;18.90;;;14.57;;
68653;SDS011;55636;51.108;13.622;2023-05-01T06:16:50;20.07;;;14.40;;
68653;SDS011;55636;51.108;13.622;2023-05-01T06:17:52;18.60;;;14.70;;
68653;SDS011;55636;51.108;13.622;2023-05-01T06:18:55;20.10;;;15.23;;
68653;SDS011;55636;51.108;13.622;2023-05-01T06:19:58;18.23;;;14.77;;
68653;SDS011;55636;51.108;13.622;2023-05-01T06:21:02;18.70;;;14.20;;
68653;SDS011;55636;51.108;13.622;2023-05-01T06:22:05;16.60;;;14.40;;
68653;SDS011;55636;51.108;13.622;2023-05-01T06:23:14;20.13;;;15.20;;
68653;SDS011;55636;51.108;13.622;2023-05-01T06:24:40;20.60;;;14.67;;